Hubbard Lake, Michigan
Current Conditions -  °F | °C
As of 3:54 PM on Thursday 23 Oct 2014 (Local Time) from KAPN Reporting Station
Clear Clear  
Wind Chill: 51°   Ceiling: Unl
Heat Index: 51°   Visibility: 10mi
Dew Point: 39°   Wind: 13mph
Humidity: 63%   Direction: 130°SE
Pressure: 30.13"   Gusts: NA
Location:  44.87°N, 83.59°W
Report Text: KAPN 231954Z AUTO 13011KT 10SM CLR 11/04 A3013 RMK AO2 SLP211 T01060039
Loading
Personal Weather Stations






























Interactive Weather Map
Tropical Storm Tracking
New forecast layout! Learn more

10-Day Weather Forecast

Advertisements
Track Severe Weather on mobile